Time;durP1;ratioP1;P1;durP2;ratioP2;P2;SDS_P1;SDS_P2;PMS_P1;PMS_P2;Temp;Humidity;BMP_temperature;BMP_pressure;BME280_temperature;BME280_humidity;BME280_pressure;Samples;Min_cycle;Max_cycle;Signal;HPM_P1;HPM_P2
2021/10/01 00:00:51;;;;;;;;;6.00;2.50;;;;;19.92;37.24;101599.22;5076296;27;45295;-46
2021/10/01 00:03:38;;;;;;;;;4.75;2.00;;;;;19.92;37.57;101590.47;5076520;27;45251;-47
2021/10/01 00:06:04;;;;;;;;;2.75;2.75;;;;;19.90;37.38;101587.91;5076461;28;45475;-47
2021/10/01 00:08:30;;;;;;;;;3.00;3.00;;;;;19.86;37.00;101585.47;5076543;27;45591;-47
2021/10/01 00:10:57;;;;;;;;;5.00;2.75;;;;;19.87;37.27;101584.56;5075820;27;46211;-50
2021/10/01 00:13:23;;;;;;;;;2.75;2.75;;;;;19.84;37.40;101582.88;5076199;27;45399;-46
2021/10/01 00:15:49;;;;;;;;;4.75;3.00;;;;;19.83;37.61;101581.16;5076270;28;45260;-47
2021/10/01 00:18:15;;;;;;;;;3.50;1.50;;;;;19.82;37.43;101579.44;5076859;27;45265;-47
2021/10/01 00:20:41;;;;;;;;;5.00;3.00;;;;;19.80;37.62;101576.00;5079648;27;45385;-47
2021/10/01 00:23:06;;;;;;;;;4.50;2.00;;;;;19.78;37.18;101576.09;5079823;28;45393;-47
2021/10/01 00:25:32;;;;;;;;;3.50;3.50;;;;;19.78;37.51;101576.09;5079781;28;45335;-49
2021/10/01 00:27:57;;;;;;;;;2.25;2.25;;;;;19.79;37.57;101566.41;5079920;27;45494;-47
2021/10/01 00:30:23;;;;;;;;;2.00;2.00;;;;;19.76;37.21;101556.88;5079467;27;45308;-47
2021/10/01 00:32:49;;;;;;;;;2.00;2.00;;;;;19.77;37.45;101558.59;5079557;27;45756;-47
2021/10/01 00:35:15;;;;;;;;;2.25;2.25;;;;;19.74;37.14;101549.94;5079790;27;45435;-46
2021/10/01 00:37:40;;;;;;;;;3.00;2.00;;;;;19.75;37.25;101563.06;5079972;27;45309;-46
2021/10/01 00:40:06;;;;;;;;;2.00;2.00;;;;;19.74;37.21;101561.34;5079337;27;46348;-48
2021/10/01 00:42:31;;;;;;;;;4.75;2.25;;;;;19.75;37.66;101570.94;5079236;28;45794;-50
2021/10/01 00:44:57;;;;;;;;;1.50;1.50;;;;;19.78;37.26;101567.31;5095079;27;45446;-52
2021/10/01 00:47:23;;;;;;;;;2.00;2.00;;;;;19.79;37.23;101571.66;5079675;27;45437;-49
2021/10/01 00:49:49;;;;;;;;;4.00;4.00;;;;;19.80;37.20;101573.38;5078921;27;46715;-46
2021/10/01 00:52:18;;;;;;;;;2.00;2.00;;;;;19.81;37.25;101561.06;5079232;27;45349;-48
2021/10/01 00:54:43;;;;;;;;;3.50;2.00;;;;;19.82;37.19;101554.91;5079171;28;45314;-46
2021/10/01 00:57:09;;;;;;;;;1.25;1.25;;;;;19.84;37.51;101558.34;5079643;27;45627;-46
2021/10/01 00:59:34;;;;;;;;;3.75;2.00;;;;;19.84;37.68;101553.06;5078744;27;46572;-47
2021/10/01 01:01:59;;;;;;;;;2.00;2.00;;;;;19.86;37.61;101553.91;5079184;27;45368;-46
2021/10/01 01:04:25;;;;;;;;;2.75;2.00;;;;;19.86;37.71;101543.38;5079229;27;45432;-51
2021/10/01 01:06:54;;;;;;;;;2.50;2.50;;;;;19.88;37.46;101549.44;5079070;27;45526;-47
2021/10/01 01:09:33;;;;;;;;;4.00;3.00;;;;;19.87;37.45;101543.31;5078635;27;47160;-46
2021/10/01 01:12:10;;;;;;;;;5.00;2.00;;;;;19.88;37.21;101544.19;5078599;27;45249;-47
2021/10/01 01:14:38;;;;;;;;;3.50;3.00;;;;;19.88;37.23;101536.28;5078972;27;45367;-46
2021/10/01 01:17:06;;;;;;;;;1.50;1.50;;;;;19.86;37.22;101531.06;5079117;28;45907;-46
2021/10/01 01:20:05;;;;;;;;;2.00;2.00;;;;;19.85;37.64;101534.59;5078597;27;46542;-50
2021/10/01 01:22:40;;;;;;;;;3.50;1.50;;;;;19.82;37.74;101524.22;5078857;28;45763;-48
2021/10/01 01:25:41;;;;;;;;;1.25;1.25;;;;;19.85;37.68;101517.94;5078868;27;45492;-48
2021/10/01 01:28:12;;;;;;;;;4.00;2.00;;;;;19.84;37.16;101521.50;5078868;27;45339;-49
2021/10/01 01:30:44;;;;;;;;;1.75;1.75;;;;;19.83;37.19;101520.66;5077081;27;46645;-47
2021/10/01 01:33:14;;;;;;;;;2.75;2.75;;;;;19.83;37.15;101523.28;5078972;27;45334;-48
2021/10/01 01:35:43;;;;;;;;;2.25;1.75;;;;;19.82;37.83;101512.81;5078995;28;45405;-50
2021/10/01 01:38:18;;;;;;;;;3.00;1.00;;;;;19.82;37.61;101523.34;5078699;27;45309;-50
2021/10/01 01:40:50;;;;;;;;;2.25;1.75;;;;;19.82;37.72;101512.81;5094439;27;45654;-50
2021/10/01 01:43:15;;;;;;;;;2.25;2.25;;;;;19.82;37.37;101511.06;5078435;27;45312;-49
2021/10/01 01:45:42;;;;;;;;;4.00;2.00;;;;;19.82;37.37;101505.78;5078765;27;45246;-51
2021/10/01 01:48:09;;;;;;;;;4.25;2.00;;;;;19.83;37.51;101509.25;5078588;28;45301;-50
2021/10/01 01:50:35;;;;;;;;;1.25;1.25;;;;;19.81;37.30;101500.56;5078018;27;46453;-49
2021/10/01 01:53:02;;;;;;;;;1.00;1.00;;;;;19.82;37.45;101497.91;5078143;27;45271;-50
2021/10/01 01:55:29;;;;;;;;;2.00;2.00;;;;;19.82;37.53;101497.03;5078203;27;45350;-47
2021/10/01 01:57:55;;;;;;;;;2.00;2.00;;;;;19.82;37.63;101492.63;5078449;27;45484;-48
2021/10/01 02:00:21;;;;;;;;;1.75;1.75;;;;;19.82;37.30;101483.88;5078072;27;45316;-48
2021/10/01 02:02:50;;;;;;;;;2.75;2.00;;;;;19.82;37.58;101476.84;5078242;28;45678;-53
2021/10/01 02:05:16;;;;;;;;;2.25;1.75;;;;;19.80;37.42;101473.44;5078386;27;45251;-47
2021/10/01 02:07:43;;;;;;;;;1.00;1.00;;;;;19.81;37.45;101469.00;5078806;27;45531;-50
2021/10/01 02:10:10;;;;;;;;;2.50;2.50;;;;;19.82;37.43;101468.09;5077866;27;46359;-50
2021/10/01 02:12:36;;;;;;;;;3.25;2.00;;;;;19.81;37.49;101463.75;5093852;27;45916;-50
2021/10/01 02:15:02;;;;;;;;;3.00;1.50;;;;;19.80;37.67;101460.28;5078192;27;45265;-46
2021/10/01 02:17:31;;;;;;;;;1.50;0.75;;;;;19.81;37.78;101455.88;5078169;27;45519;-49
2021/10/01 02:19:59;;;;;;;;;2.25;1.25;;;;;19.81;37.89;101451.47;5077687;27;46266;-46
2021/10/01 02:22:25;;;;;;;;;1.00;1.00;;;;;19.80;37.50;101452.38;5093566;27;45651;-50
2021/10/01 02:24:51;;;;;;;;;1.00;1.00;;;;;19.81;37.74;101455.88;5077998;27;45319;-48
2021/10/01 02:27:31;;;;;;;;;1.75;1.75;;;;;19.81;37.50;101445.34;5078358;27;45471;-47
2021/10/01 02:30:11;;;;;;;;;1.75;1.75;;;;;19.80;37.87;101441.88;5077658;28;46199;-46
2021/10/01 02:32:42;;;;;;;;;3.50;1.25;;;;;19.81;37.77;101437.44;5077811;27;45233;-48
2021/10/01 02:35:08;;;;;;;;;1.00;1.00;;;;;19.81;37.47;101443.59;5077927;27;45474;-47
2021/10/01 02:37:34;;;;;;;;;2.25;2.00;;;;;19.82;37.97;101433.91;5076675;28;45558;-46
2021/10/01 02:40:00;;;;;;;;;1.25;1.25;;;;;19.82;37.51;101433.91;5077444;27;46311;-48
2021/10/01 02:42:27;;;;;;;;;1.50;1.50;;;;;19.81;37.57;101432.19;5077047;28;45319;-47
2021/10/01 02:44:54;;;;;;;;;2.50;1.00;;;;;19.81;37.59;101421.66;5077620;27;45390;-47
2021/10/01 02:47:24;;;;;;;;;2.00;1.00;;;;;19.77;37.67;101411.31;5077619;27;45484;-47
2021/10/01 02:49:50;;;;;;;;;2.00;2.00;;;;;19.80;37.57;101419.94;5077381;27;46134;-46
2021/10/01 02:52:38;;;;;;;;;3.00;1.25;;;;;19.78;37.90;101420.91;5077446;27;45790;-47
2021/10/01 02:55:17;;;;;;;;;2.00;2.00;;;;;19.77;38.17;101416.56;5077626;28;45683;-50
2021/10/01 02:57:51;;;;;;;;;1.75;1.75;;;;;19.75;37.47;101412.25;5077663;27;45451;-47
2021/10/01 03:00:17;;;;;;;;;2.00;2.00;;;;;19.70;38.08;101403.72;5077413;27;46510;-47
2021/10/01 03:02:44;;;;;;;;;1.00;1.00;;;;;19.67;37.66;101403.84;5077159;27;45350;-47
2021/10/01 03:05:11;;;;;;;;;1.00;1.00;;;;;19.67;37.77;101401.22;5075908;28;45341;-47
2021/10/01 03:07:39;;;;;;;;;4.50;1.25;;;;;19.64;38.29;101394.31;5077396;27;45677;-47
2021/10/01 03:10:06;;;;;;;;;2.75;1.50;;;;;19.64;38.29;101402.22;5076850;27;45653;-46
2021/10/01 03:12:33;;;;;;;;;1.00;1.00;;;;;19.64;38.09;101399.59;5077048;28;45354;-48
2021/10/01 03:15:01;;;;;;;;;1.00;1.00;;;;;19.64;38.35;101396.97;5077129;27;45408;-48
2021/10/01 03:17:27;;;;;;;;;2.00;2.00;;;;;19.62;38.00;101396.16;5077297;27;45496;-50
2021/10/01 03:19:53;;;;;;;;;2.75;2.75;;;;;19.59;38.36;101394.53;5076766;28;46704;-48
2021/10/01 03:22:19;;;;;;;;;2.00;1.00;;;;;19.59;37.89;101391.03;5077215;27;45258;-55
2021/10/01 03:24:46;;;;;;;;;1.50;1.50;;;;;19.57;38.25;101387.59;5077209;27;45974;-50
2021/10/01 03:27:12;;;;;;;;;1.00;1.00;;;;;19.59;38.18;101388.41;5092734;27;45337;-49
2021/10/01 03:29:38;;;;;;;;;2.50;1.00;;;;;19.58;38.45;101384.06;5076703;27;45728;-52
2021/10/01 03:32:06;;;;;;;;;3.75;1.00;;;;;19.56;38.04;101388.56;5076749;27;45878;-46
2021/10/01 03:34:32;;;;;;;;;3.00;2.00;;;;;19.57;38.61;101387.59;5076953;27;45223;-49
2021/10/01 03:36:57;;;;;;;;;2.00;2.00;;;;;19.55;38.56;101387.69;5076981;27;45386;-47
2021/10/01 03:39:23;;;;;;;;;3.00;2.00;;;;;19.56;38.77;101386.75;5092428;27;47156;-48
2021/10/01 03:41:49;;;;;;;;;1.25;1.25;;;;;19.55;38.35;101381.56;5076977;27;45193;-48
2021/10/01 03:44:15;;;;;;;;;1.00;1.00;;;;;19.53;38.44;101384.25;5076888;27;45751;-49
2021/10/01 03:46:40;;;;;;;;;1.00;1.00;;;;;19.54;38.57;101379.88;5092658;27;45594;-49
2021/10/01 03:49:05;;;;;;;;;2.75;1.00;;;;;19.52;38.48;101368.56;5076352;27;46930;-49
2021/10/01 03:51:31;;;;;;;;;2.00;2.00;;;;;19.49;38.93;101374.81;5076527;27;45322;-49
2021/10/01 03:53:57;;;;;;;;;1.00;1.00;;;;;19.48;38.22;101370.47;5078236;27;45899;-48
2021/10/01 03:56:23;;;;;;;;;1.75;1.75;;;;;19.47;38.84;101366.97;5080492;27;45462;-50
2021/10/01 03:58:49;;;;;;;;;2.50;1.00;;;;;19.46;38.42;101364.41;5080355;27;46939;-47
2021/10/01 04:01:15;;;;;;;;;2.00;2.00;;;;;19.45;38.90;101366.19;5079989;27;45403;-47
2021/10/01 04:03:41;;;;;;;;;1.00;1.00;;;;;19.44;38.82;101367.13;5080173;27;45415;-47
2021/10/01 04:06:07;;;;;;;;;2.75;2.00;;;;;19.47;38.94;101360.88;5080301;27;45585;-50
2021/10/01 04:08:33;;;;;;;;;3.00;2.00;;;;;19.49;38.90;101360.78;5079815;27;46218;-46
2021/10/01 04:10:58;;;;;;;;;3.50;2.25;;;;;19.45;38.56;101347.78;5079844;27;45537;-47
2021/10/01 04:13:24;;;;;;;;;1.25;1.25;;;;;19.46;38.56;101346.84;5080051;28;45262;-48
2021/10/01 04:15:50;;;;;;;;;2.00;2.00;;;;;19.46;38.71;101348.63;5080516;27;45313;-51
2021/10/01 04:18:15;;;;;;;;;3.00;2.00;;;;;19.44;39.25;101340.81;5079749;28;45615;-49
2021/10/01 04:20:43;;;;;;;;;3.75;2.00;;;;;19.40;39.48;101333.97;5079584;27;45335;-50
2021/10/01 04:23:08;;;;;;;;;2.00;2.00;;;;;19.44;39.31;101340.81;5079845;28;45417;-51
2021/10/01 04:25:34;;;;;;;;;1.50;1.50;;;;;19.50;39.48;101349.34;5079986;27;45604;-50
2021/10/01 04:27:59;;;;;;;;;2.50;1.25;;;;;19.56;39.45;101343.84;5079563;27;45388;-46
2021/10/01 04:30:25;;;;;;;;;1.75;1.75;;;;;19.64;39.25;101347.00;5079567;27;45309;-47
2021/10/01 04:33:00;;;;;;;;;1.50;1.50;;;;;19.75;39.43;101342.13;5080035;27;45241;-51
2021/10/01 04:35:26;;;;;;;;;2.25;1.50;;;;;19.85;39.08;101334.66;5095561;27;45352;-52
2021/10/01 04:37:52;;;;;;;;;2.50;2.00;;;;;19.96;39.40;101344.75;5079709;28;45464;-47
2021/10/01 04:40:17;;;;;;;;;1.75;1.75;;;;;20.07;38.80;101337.22;5079530;27;45330;-48
2021/10/01 04:42:42;;;;;;;;;4.50;1.00;;;;;20.15;38.70;101338.66;5079418;27;45628;-48
2021/10/01 04:45:08;;;;;;;;;1.25;1.25;;;;;20.24;38.57;101343.47;5095503;27;45643;-48
2021/10/01 04:47:33;;;;;;;;;2.25;2.25;;;;;20.31;38.72;101342.28;5079158;27;46537;-46
2021/10/01 04:49:59;;;;;;;;;2.75;2.75;;;;;20.38;38.68;101340.22;5079204;27;45193;-46
2021/10/01 04:52:24;;;;;;;;;3.00;1.75;;;;;20.43;38.23;101340.00;5079706;27;45540;-48
2021/10/01 04:54:49;;;;;;;;;2.50;2.00;;;;;20.46;38.52;101338.09;5079907;27;45293;-47
2021/10/01 04:57:15;;;;;;;;;1.25;1.25;;;;;20.51;38.04;101333.44;5079159;27;46297;-47
2021/10/01 04:59:40;;;;;;;;;2.00;2.00;;;;;20.54;38.21;101333.31;5078898;27;45354;-53
2021/10/01 05:02:06;;;;;;;;;1.75;1.75;;;;;20.59;38.39;101333.06;5079173;27;45336;-51
2021/10/01 05:04:31;;;;;;;;;3.00;3.00;;;;;20.61;38.26;101335.66;5078968;27;45490;-49
2021/10/01 05:06:56;;;;;;;;;2.25;2.00;;;;;20.64;38.18;101343.38;5078971;27;46248;-49
2021/10/01 05:09:22;;;;;;;;;6.50;2.00;;;;;20.66;37.71;101337.16;5079186;27;45359;-46
2021/10/01 05:11:47;;;;;;;;;2.00;2.00;;;;;20.66;37.74;101337.16;5079035;27;45314;-52
2021/10/01 05:14:12;;;;;;;;;1.50;1.00;;;;;20.66;37.90;101337.16;5079216;27;45448;-51
2021/10/01 05:16:38;;;;;;;;;3.00;3.00;;;;;20.67;37.44;101330.09;5078859;27;45318;-46
2021/10/01 05:19:03;;;;;;;;;3.75;2.00;;;;;20.66;37.56;101326.63;5078758;27;45426;-46
2021/10/01 05:21:29;;;;;;;;;2.75;2.00;;;;;20.66;37.88;101328.38;5078962;27;45385;-53
2021/10/01 05:23:54;;;;;;;;;2.25;2.00;;;;;20.65;37.95;101327.53;5079423;27;45418;-52
2021/10/01 05:26:19;;;;;;;;;2.75;1.75;;;;;20.64;37.42;101338.13;5078524;27;46459;-51
2021/10/01 05:28:45;;;;;;;;;2.00;2.00;;;;;20.62;38.25;101334.69;5078610;27;45469;-53
2021/10/01 05:31:10;;;;;;;;;2.50;2.25;;;;;20.61;38.19;101327.75;5078705;27;45246;-56
2021/10/01 05:33:35;;;;;;;;;1.00;1.00;;;;;20.60;38.55;101326.06;5078917;27;45263;-49
2021/10/01 05:36:01;;;;;;;;;4.00;2.25;;;;;20.59;38.85;101324.34;5078513;27;46109;-54
2021/10/01 05:38:29;;;;;;;;;3.00;3.00;;;;;20.59;39.25;101325.19;5078870;27;45233;-51
2021/10/01 05:40:55;;;;;;;;;2.00;2.00;;;;;20.60;39.60;101326.88;5078966;27;45396;-54
2021/10/01 05:43:26;;;;;;;;;2.25;2.25;;;;;20.61;39.19;101325.13;5078873;27;45541;-54
2021/10/01 05:45:57;;;;;;;;;3.00;3.00;;;;;20.62;39.83;101319.78;5094031;27;47536;-48
2021/10/01 05:48:24;;;;;;;;;2.75;0.75;;;;;20.61;39.24;101312.78;5078716;27;45303;-51
2021/10/01 05:50:54;;;;;;;;;2.00;2.00;;;;;20.62;39.81;101313.63;5078265;27;45338;-52
2021/10/01 05:53:46;;;;;;;;;3.50;2.00;;;;;20.62;39.46;101314.50;5078407;27;45487;-49
2021/10/01 05:56:12;;;;;;;;;2.75;2.00;;;;;20.59;39.88;101312.00;5078058;27;45523;-52
2021/10/01 05:58:39;;;;;;;;;3.00;2.25;;;;;20.55;39.51;101313.09;5078141;27;45849;-54
2021/10/01 06:01:05;;;;;;;;;2.25;2.25;;;;;20.57;39.70;101311.22;5078078;27;45421;-51
2021/10/01 06:03:31;;;;;;;;;2.25;2.00;;;;;20.55;39.97;101310.47;5078313;27;45506;-52
2021/10/01 06:05:56;;;;;;;;;2.00;1.75;;;;;20.55;40.17;101305.19;5078221;27;46448;-50
2021/10/01 06:08:22;;;;;;;;;2.25;2.25;;;;;20.54;40.17;101303.50;5078066;27;45344;-52
2021/10/01 06:10:48;;;;;;;;;3.00;3.00;;;;;20.52;39.89;101307.97;5078020;27;45407;-53
2021/10/01 06:13:13;;;;;;;;;3.00;3.00;;;;;20.54;40.05;101304.34;5078305;27;45315;-53
2021/10/01 06:15:39;;;;;;;;;3.25;2.00;;;;;20.53;40.46;101304.41;5093043;27;47570;-51
2021/10/01 06:18:04;;;;;;;;;2.50;2.00;;;;;20.52;40.12;101310.59;5077487;27;45328;-50
2021/10/01 06:20:29;;;;;;;;;3.75;2.50;;;;;20.52;40.16;101313.25;5078098;27;45278;-54
2021/10/01 06:22:55;;;;;;;;;2.00;2.00;;;;;20.51;39.95;101314.16;5078441;27;45421;-54
2021/10/01 06:25:22;;;;;;;;;3.25;3.00;;;;;20.52;40.05;101303.53;5077667;27;46301;-53
2021/10/01 06:27:47;;;;;;;;;3.75;3.00;;;;;20.49;39.67;101308.97;5077844;27;45269;-54
2021/10/01 06:30:13;;;;;;;;;4.00;2.50;;;;;20.48;40.13;101295.88;5077769;27;45660;-55
2021/10/01 06:32:39;;;;;;;;;3.25;2.75;;;;;20.46;40.13;101295.09;5077959;27;45514;-55
2021/10/01 06:35:06;;;;;;;;;2.00;2.00;;;;;20.47;39.60;101299.44;5077874;27;46265;-55
2021/10/01 06:37:32;;;;;;;;;3.75;3.25;;;;;20.44;40.02;101295.16;5077578;27;45393;-54
2021/10/01 06:39:57;;;;;;;;;2.00;2.00;;;;;20.44;39.75;101289.06;5078066;28;45454;-55
2021/10/01 06:42:24;;;;;;;;;2.00;2.00;;;;;20.42;39.94;101288.28;5077839;27;45665;-55
2021/10/01 06:44:51;;;;;;;;;3.25;1.75;;;;;20.42;39.67;101293.53;5077425;27;46506;-55
2021/10/01 06:47:34;;;;;;;;;3.25;2.75;;;;;20.43;39.40;101298.72;5077443;27;45421;-55
2021/10/01 08:19:28;;;;;;;;;2.00;1.25;;;;;20.31;39.52;101259.81;5076538;28;45441;-54
2021/10/01 08:21:56;;;;;;;;;2.75;2.75;;;;;20.31;39.53;101263.31;5075969;27;46393;-55
2021/10/01 08:24:22;;;;;;;;;1.75;1.75;;;;;20.31;39.40;101263.31;5076072;27;45318;-52
2021/10/01 08:26:50;;;;;;;;;3.00;3.00;;;;;20.32;40.09;101265.03;5076242;28;45321;-55
2021/10/01 08:29:16;;;;;;;;;3.00;3.00;;;;;20.31;39.95;101247.53;5076468;27;45303;-54
2021/10/01 08:31:42;;;;;;;;;2.00;2.00;;;;;20.32;39.94;101258.91;5075964;28;45654;-51
2021/10/01 08:34:08;;;;;;;;;4.00;2.00;;;;;20.32;40.12;101246.59;5075897;28;45271;-53
2021/10/01 08:36:34;;;;;;;;;3.00;3.00;;;;;20.33;39.80;101247.44;5075157;28;45359;-52
2021/10/01 08:38:59;;;;;;;;;3.25;2.25;;;;;20.33;40.15;101250.94;5076412;27;45369;-54
2021/10/01 08:41:25;;;;;;;;;4.00;3.00;;;;;20.32;40.18;101246.59;5079313;27;45452;-55
2021/10/01 08:43:51;;;;;;;;;4.50;4.50;;;;;20.32;39.86;101241.34;5079380;27;45398;-49
2021/10/01 08:46:18;;;;;;;;;2.25;2.25;;;;;20.30;39.65;101240.56;5079619;27;45327;-56
2021/10/01 08:48:44;;;;;;;;;3.00;3.00;;;;;20.33;40.01;101240.41;5079669;27;45389;-52
2021/10/01 08:51:13;;;;;;;;;3.25;1.50;;;;;20.34;40.01;101241.25;5079158;27;45452;-52
2021/10/01 08:53:39;;;;;;;;;5.25;4.00;;;;;20.32;40.09;101236.06;5079283;27;45238;-52
2021/10/01 08:56:05;;;;;;;;;2.50;2.25;;;;;20.33;39.84;101237.78;5078502;28;45240;-54
2021/10/01 08:58:31;;;;;;;;;2.00;2.00;;;;;20.32;40.42;101237.84;5079567;27;45507;-56
2021/10/01 09:00:58;;;;;;;;;3.00;3.00;;;;;20.32;39.87;101229.94;5078835;27;45436;-54
2021/10/01 09:03:23;;;;;;;;;2.50;2.50;;;;;20.32;40.41;101232.56;5079037;27;45731;-55
2021/10/01 09:05:50;;;;;;;;;4.75;3.00;;;;;20.31;40.06;101225.59;5079129;28;45464;-55
2021/10/01 09:08:22;;;;;;;;;4.00;3.00;;;;;20.30;39.96;101223.88;5079314;27;45222;-52
2021/10/01 09:11:03;;;;;;;;;3.00;3.00;;;;;20.31;40.65;101225.59;5078937;27;46529;-55
2021/10/01 09:13:30;;;;;;;;;2.00;2.00;;;;;20.31;40.13;101226.47;5079185;27;45260;-53
2021/10/01 09:16:14;;;;;;;;;5.75;2.00;;;;;20.30;40.30;101224.75;5079043;27;45499;-55
2021/10/01 09:18:42;;;;;;;;;2.00;2.00;;;;;20.32;40.81;101222.03;5079101;27;45567;-55
2021/10/01 09:21:11;;;;;;;;;3.00;3.00;;;;;20.31;40.48;101210.69;5078990;27;47344;-55
2021/10/01 09:23:46;;;;;;;;;2.50;2.50;;;;;20.33;40.89;101219.34;5079175;27;45741;-54
2021/10/01 09:26:17;;;;;;;;;2.75;2.75;;;;;20.34;40.51;101221.03;5078734;27;45300;-55
2021/10/01 09:28:53;;;;;;;;;2.00;2.00;;;;;20.34;41.14;101215.78;5079007;27;45371;-52
2021/10/01 09:31:37;;;;;;;;;3.00;2.00;;;;;20.35;40.50;101211.38;5078464;27;45479;-54
2021/10/01 09:34:04;;;;;;;;;3.25;3.00;;;;;20.34;40.53;101207.88;5078638;28;45525;-55
2021/10/01 09:36:31;;;;;;;;;6.00;3.00;;;;;20.33;40.51;101207.97;5078484;27;45268;-52
2021/10/01 09:38:58;;;;;;;;;3.00;1.50;;;;;20.35;40.64;101212.22;5078767;27;45226;-52
2021/10/01 09:41:26;;;;;;;;;3.00;3.00;;;;;20.36;40.57;101208.66;5078275;27;45452;-55
2021/10/01 09:44:07;;;;;;;;;3.00;2.00;;;;;20.36;41.16;101207.81;5078421;27;45864;-55
2021/10/01 09:46:39;;;;;;;;;2.50;2.00;;;;;20.35;41.22;101206.94;5078522;28;45401;-52
2021/10/01 09:49:06;;;;;;;;;2.75;2.75;;;;;20.36;40.93;101208.66;5079192;27;45464;-54
2021/10/01 09:51:34;;;;;;;;;3.00;2.75;;;;;20.37;40.96;101202.47;5076867;27;46392;-53
2021/10/01 09:54:08;;;;;;;;;2.75;2.75;;;;;20.37;40.90;101213.00;5094076;27;45936;-55
2021/10/01 09:56:34;;;;;;;;;4.00;2.75;;;;;20.38;41.24;101214.69;5078460;27;45260;-54
2021/10/01 09:59:23;;;;;;;;;2.50;2.00;;;;;20.38;40.86;101212.06;5078777;27;45303;-55
2021/10/01 10:02:13;;;;;;;;;3.75;2.50;;;;;20.39;40.82;101208.50;5072469;27;46322;-55
2021/10/01 10:04:52;;;;;;;;;4.00;3.00;;;;;20.39;40.86;101207.69;5078144;27;45725;-54
2021/10/01 10:07:27;;;;;;;;;3.00;2.00;;;;;20.40;41.37;101214.63;5078116;27;45321;-56
2021/10/01 10:09:56;;;;;;;;;2.25;2.00;;;;;20.41;41.42;101204.97;5078257;27;45498;-53
2021/10/01 10:12:43;;;;;;;;;1.25;1.25;;;;;20.41;41.58;101204.97;5077937;27;45311;-55
2021/10/01 10:15:17;;;;;;;;;2.25;2.00;;;;;20.39;41.76;101195.34;5076897;28;45248;-52
2021/10/01 10:17:47;;;;;;;;;2.00;2.00;;;;;20.40;41.37;101190.91;5077958;27;45271;-55
2021/10/01 10:20:14;;;;;;;;;3.25;2.00;;;;;20.42;41.56;101196.13;5078079;27;45499;-53
2021/10/01 10:22:39;;;;;;;;;2.75;2.00;;;;;20.41;41.44;101187.38;5078082;27;46540;-55
2021/10/01 10:25:04;;;;;;;;;4.00;2.75;;;;;20.42;41.65;101204.03;5077924;27;45429;-52
2021/10/01 10:27:30;;;;;;;;;2.25;2.25;;;;;20.43;41.43;101205.75;5077779;27;45516;-54
2021/10/01 10:29:57;;;;;;;;;3.00;3.00;;;;;20.44;41.74;101205.66;5077851;28;45541;-55
2021/10/01 10:32:28;;;;;;;;;1.50;1.50;;;;;20.46;41.50;101202.94;5077492;27;46557;-54
2021/10/01 10:34:56;;;;;;;;;2.50;2.50;;;;;20.47;42.47;101204.63;5077599;27;45843;-56
2021/10/01 10:37:44;;;;;;;;;1.75;1.75;;;;;20.48;42.15;101201.09;5077841;27;45377;-55
2021/10/01 10:40:13;;;;;;;;;2.25;2.00;;;;;20.48;42.17;101196.69;5078274;27;45359;-53
2021/10/01 10:42:44;;;;;;;;;3.25;3.00;;;;;20.54;41.87;101198.16;5077725;27;45582;-54
2021/10/01 10:45:14;;;;;;;;;2.25;2.25;;;;;20.61;42.39;101186.38;5077936;27;45209;-54
2021/10/01 10:47:45;;;;;;;;;4.00;2.00;;;;;20.70;42.12;101180.66;5077763;27;45443;-54
2021/10/01 10:50:25;;;;;;;;;3.00;3.00;;;;;20.81;41.94;101176.66;5077992;27;45612;-53
2021/10/01 10:53:11;;;;;;;;;1.25;1.25;;;;;20.91;41.86;101166.50;5077326;27;46335;-55
2021/10/01 10:55:45;;;;;;;;;2.00;2.00;;;;;21.00;42.21;101153.69;5077216;27;45368;-55
2021/10/01 10:58:22;;;;;;;;;7.50;4.50;;;;;21.13;41.83;101158.31;5077743;27;45385;-54
2021/10/01 11:01:12;;;;;;;;;3.00;2.25;;;;;21.23;41.66;101167.44;5093047;27;45352;-55
2021/10/01 11:03:38;;;;;;;;;12.75;7.75;;;;;21.31;41.79;101165.25;5076880;27;46567;-54
2021/10/01 11:06:10;;;;;;;;;19.25;14.50;;;;;21.40;41.43;101169.16;5077084;27;45460;-55
2021/10/01 11:08:37;;;;;;;;;27.50;21.50;;;;;21.48;41.62;101171.41;5077119;27;45479;-55
2021/10/01 11:11:03;;;;;;;;;28.00;22.00;;;;;21.54;41.72;101154.38;5077154;28;45490;-54
2021/10/01 11:13:33;;;;;;;;;41.00;34.00;;;;;21.62;41.57;101152.19;5076932;27;45718;-56
2021/10/01 11:16:08;;;;;;;;;33.75;30.50;;;;;21.70;41.68;101146.50;5077180;27;45822;-55
2021/10/01 11:21:27;;;;;;;;;33.75;25.75;;;;;21.83;41.31;101139.63;5077268;27;45430;-54
2021/10/01 11:24:17;;;;;;;;;34.00;24.00;;;;;21.89;41.54;101136.63;5076770;27;47218;-55
2021/10/01 11:26:48;;;;;;;;;23.25;18.50;;;;;21.98;41.20;101134.44;5077151;27;45280;-54
2021/10/01 11:29:19;;;;;;;;;19.75;18.75;;;;;22.04;41.31;101116.44;5077403;27;45310;-55
2021/10/01 11:31:45;;;;;;;;;12.75;11.50;;;;;22.09;41.36;101129.38;5077162;27;45554;-53
2021/10/01 11:34:10;;;;;;;;;20.75;15.00;;;;;22.13;41.12;101125.59;5076891;27;46179;-53
2021/10/01 11:36:37;;;;;;;;;20.25;18.00;;;;;22.18;40.99;101120.06;5076569;27;45374;-54
2021/10/01 11:39:04;;;;;;;;;14.75;13.50;;;;;22.22;40.83;101122.44;5076845;27;45328;-54
2021/10/01 11:41:30;;;;;;;;;18.50;14.00;;;;;22.26;40.93;101116.97;5077065;27;45279;-54
2021/10/01 11:43:57;;;;;;;;;13.00;10.75;;;;;22.23;41.02;101110.09;5076497;27;46083;-55
2021/10/01 11:46:32;;;;;;;;;18.50;15.00;;;;;22.28;40.97;101115.09;5075360;28;45288;-55
2021/10/01 11:48:58;;;;;;;;;13.00;11.25;;;;;22.28;40.99;101113.31;5076568;27;45379;-53
2021/10/01 11:51:23;;;;;;;;;11.00;9.00;;;;;22.32;41.02;101114.84;5076723;27;45322;-53
2021/10/01 11:54:05;;;;;;;;;10.50;10.00;;;;;22.35;41.12;101114.66;5076499;27;46522;-54
2021/10/01 11:56:30;;;;;;;;;10.25;6.00;;;;;22.37;40.92;101101.34;5076413;27;45308;-55
2021/10/01 11:58:55;;;;;;;;;10.50;9.00;;;;;22.38;40.81;101103.91;5076433;27;45706;-54
2021/10/01 12:01:21;;;;;;;;;13.25;8.50;;;;;22.40;40.86;101098.53;5076228;27;45484;-54
2021/10/01 12:03:52;;;;;;;;;10.75;7.75;;;;;22.39;40.86;101100.31;5076288;27;46475;-55
2021/10/01 12:06:22;;;;;;;;;8.25;8.00;;;;;22.40;40.88;101090.63;5076305;27;45412;-55
2021/10/01 12:09:03;;;;;;;;;7.00;6.75;;;;;22.41;41.08;101094.13;5076459;27;45325;-54
2021/10/01 12:11:35;;;;;;;;;8.25;7.50;;;;;22.41;40.92;101087.06;5075081;28;45663;-55
2021/10/01 12:14:12;;;;;;;;;6.25;6.25;;;;;22.41;40.98;101081.78;5092196;27;48423;-55
2021/10/01 12:16:39;;;;;;;;;6.00;5.00;;;;;22.41;41.01;101083.56;5079693;27;45789;-55
2021/10/01 12:19:05;;;;;;;;;6.25;6.25;;;;;22.39;41.10;101081.84;5079974;27;45361;-55
2021/10/01 12:21:35;;;;;;;;;7.75;6.50;;;;;22.41;41.13;101088.84;5079897;27;45395;-55
2021/10/01 12:24:12;;;;;;;;;7.50;5.50;;;;;22.41;41.10;101086.22;5078245;28;48349;-55
2021/10/01 12:26:43;;;;;;;;;4.25;3.50;;;;;22.39;41.27;101087.13;5079665;27;45359;-55
2021/10/01 12:29:16;;;;;;;;;5.75;4.75;;;;;22.38;41.07;101092.50;5079786;27;45371;-53
2021/10/01 12:31:43;;;;;;;;;5.50;5.25;;;;;22.35;41.28;101077.69;5079839;27;45503;-55
2021/10/01 12:34:18;;;;;;;;;5.00;5.00;;;;;22.36;41.25;101078.53;5079469;27;46300;-55
2021/10/01 12:36:45;;;;;;;;;4.00;4.00;;;;;22.34;41.24;101068.06;5079805;27;45449;-55
2021/10/01 12:39:11;;;;;;;;;7.75;4.00;;;;;22.32;41.23;101071.75;5079637;27;45185;-50
2021/10/01 12:41:37;;;;;;;;;4.25;3.00;;;;;22.29;41.13;101077.22;5079601;27;45546;-55
2021/10/01 12:44:04;;;;;;;;;7.25;5.00;;;;;22.28;41.33;101049.94;5079513;27;45726;-55
2021/10/01 12:46:41;;;;;;;;;4.00;2.25;;;;;22.29;41.49;101061.38;5079169;27;45798;-53
2021/10/01 12:49:28;;;;;;;;;6.50;4.00;;;;;22.27;41.26;101056.16;5079376;27;45416;-53
2021/10/01 12:52:02;;;;;;;;;3.00;3.00;;;;;22.27;41.57;101053.50;5079253;27;45325;-55
2021/10/01 12:54:30;;;;;;;;;4.00;4.00;;;;;22.27;41.40;101052.69;5079196;27;46567;-55
2021/10/01 12:57:22;;;;;;;;;3.75;3.75;;;;;22.25;41.77;101044.84;5079260;27;45700;-54
2021/10/01 12:59:55;;;;;;;;;3.25;3.00;;;;;22.24;41.54;101044.00;5079397;28;45326;-54
2021/10/01 13:02:23;;;;;;;;;2.50;2.00;;;;;22.20;41.71;101031.94;5079385;27;45456;-55
2021/10/01 13:05:02;;;;;;;;;5.75;3.25;;;;;22.20;41.95;101037.22;5079193;27;45639;-53